Date,TemperatureHighF,TemperatureAvgF,TemperatureLowF,DewpointHighF,DewpointAvgF,DewpointLowF,HumidityHigh,HumidityAvg,HumidityLow,PressureMaxIn,PressureMinIn,WindSpeedMaxMPH,WindSpeedAvgMPH,GustSpeedMaxMPH,PrecipitationSumIn
2013-1-1,73.5,69.2,65.7,67.3,65.8,63.1,97,89,78,30.09,29.97,26,8,26,0.19
2013-1-2,71.1,68.2,66.2,67.0,65.6,63.5,98,91,78,30.05,29.94,25,9,29,0.14
2013-1-3,71.2,67.2,64.6,67.4,65.4,63.6,98,94,84,30.09,29.96,28,9,28,0.18
2013-1-4,68.7,66.5,64.7,66.7,65.0,63.1,98,95,90,30.14,30.04,28,10,28,0.11
2013-1-5,72.2,68.5,66.0,66.6,64.5,60.5,96,87,77,30.14,30.04,34,13,35,0.00
2013-1-6,75.3,70.1,67.7,65.7,63.7,59.8,89,80,68,30.12,29.96,38,14,39,0.00
2013-1-7,75.8,70.0,67.3,66.8,63.6,57.5,91,80,54,30.06,29.94,33,14,33,0.00
2013-1-8,73.7,69.2,67.3,65.9,64.0,61.5,92,84,72,29.99,29.87,33,14,33,0.00
2013-1-9,74.3,69.2,67.3,67.6,65.5,63.6,93,88,78,29.98,29.87,27,12,30,0.00
2013-1-10,77.2,70.5,67.4,66.1,63.4,60.8,87,79,61,29.97,29.85,27,10,33,0.00
2013-1-11,73.5,69.2,66.5,66.7,64.4,61.4,94,85,69,29.96,29.86,21,7,21,0.13
2013-1-12,75.3,70.8,66.9,68.5,65.0,61.1,89,82,70,29.95,29.85,19,5,21,0.00
2013-1-13,78.0,70.5,64.9,67.9,63.9,59.1,89,80,62,29.95,29.87,17,4,17,0.00
2013-1-14,79.8,72.1,66.0,68.3,64.5,61.3,95,78,59,29.94,29.82,30,6,30,0.19
2013-1-15,73.0,68.8,65.4,66.6,64.4,61.8,95,86,78,29.92,29.83,16,4,16,0.02
2013-1-16,74.8,68.0,63.3,63.8,59.9,51.4,90,76,46,29.93,29.81,21,5,21,0.00
2013-1-17,72.3,66.7,62.4,63.8,60.8,57.4,88,82,71,29.89,29.80,14,4,15,0.00
2013-1-18,74.3,67.6,61.8,62.0,59.2,56.5,88,75,60,29.92,29.80,25,7,25,0.07
2013-1-19,72.5,67.6,62.8,60.2,54.6,50.5,80,63,51,30.01,29.88,31,10,31,0.00
2013-1-20,70.9,67.4,65.4,59.5,56.6,54.2,78,68,59,30.05,29.96,27,10,30,0.00
2013-1-21,71.9,68.1,65.7,61.9,59.2,56.6,82,73,62,30.11,30.02,23,10,23,0.00
2013-1-22,71.7,68.8,67.3,65.4,61.3,57.0,85,77,68,30.13,30.01,24,9,24,0.00
2013-1-23,75.2,69.2,65.0,65.7,62.8,58.6,91,80,69,30.04,29.94,27,9,27,0.00
2013-1-24,73.3,68.7,65.4,65.6,62.5,59.8,87,81,70,30.04,29.97,22,5,22,0.02
2013-1-25,76.6,69.6,63.2,66.3,62.3,58.1,87,78,67,30.04,29.95,20,6,20,0.00
2013-1-26,76.7,69.7,64.1,64.6,61.4,58.6,87,76,55,30.01,29.90,18,4,18,0.00
2013-1-27,79.8,72.4,65.0,65.2,60.6,56.5,84,67,48,29.96,29.84,23,6,24,0.07
2013-1-28,72.7,68.9,66.1,66.7,63.9,55.6,94,84,56,29.97,29.85,18,3,19,0.02
2013-1-29,72.2,66.9,64.1,67.9,64.3,60.6,96,91,78,30.02,29.89,11,2,12,0.69
2013-1-30,73.6,68.7,65.4,67.2,64.4,60.7,92,86,75,30.05,29.97,15,4,17,0.02
2013-1-31,70.0,68.3,66.1,68.3,65.8,62.5,97,92,82,30.09,29.99,19,6,19,1.10
2013-2-1,71.8,68.7,66.1,65.3,61.9,57.7,92,79,68,30.12,30.03,25,11,27,0.00
2013-2-2,74.7,69.1,66.5,63.5,60.3,57.1,86,74,61,30.14,30.01,27,11,27,0.00
2013-2-3,71.5,67.8,64.9,59.8,58.0,55.4,77,71,61,30.17,30.07,27,10,27,0.00
2013-2-4,72.0,66.9,63.6,64.9,61.6,55.5,95,84,67,30.13,30.03,30,11,30,0.14
2013-2-5,72.0,68.0,64.9,63.7,61.6,59.5,94,80,70,30.09,29.99,26,9,26,0.07
2013-2-6,69.5,67.1,64.1,66.9,64.9,62.2,96,93,88,30.08,29.99,22,6,22,0.94
2013-2-7,72.6,69.9,68.0,67.9,65.2,60.3,92,85,71,30.11,29.99,27,10,27,0.00
2013-2-8,72.8,69.7,67.6,66.4,64.5,62.9,88,84,77,30.11,30.00,24,10,24,0.00
2013-2-9,72.3,69.2,67.4,66.4,64.2,61.9,89,84,77,30.14,30.03,21,8,21,0.00
2013-2-10,73.8,69.3,65.4,66.0,64.3,62.6,95,84,71,30.18,30.07,27,10,27,0.01
2013-2-11,70.0,67.4,65.9,66.1,63.3,59.7,94,87,77,30.19,30.10,22,8,22,0.00
2013-2-12,71.0,67.0,62.6,62.5,59.8,55.3,92,78,69,30.18,30.08,24,10,24,0.00
2013-2-13,70.4,66.7,65.0,59.9,57.0,53.7,77,71,60,30.13,30.00,24,7,24,0.00
2013-2-14,71.2,66.7,62.6,62.2,59.6,57.0,88,78,67,30.10,29.98,21,8,22,0.00
2013-2-15,72.0,68.4,64.8,66.0,61.7,57.0,88,79,65,30.10,29.98,34,10,34,0.00
2013-2-16,73.0,67.8,64.2,64.2,62.0,59.0,94,82,67,30.14,30.04,27,11,30,0.02
2013-2-17,71.5,67.2,64.1,64.9,61.6,58.8,93,82,74,30.17,30.07,31,12,31,0.01
2013-2-18,72.0,67.1,62.2,63.4,61.1,58.2,95,82,70,30.16,30.05,32,12,32,0.15
2013-2-19,72.0,67.3,62.6,63.3,60.4,56.0,93,79,60,30.15,30.04,28,10,30,0.04
2013-2-20,72.7,68.1,65.5,65.5,63.0,61.5,92,84,72,30.16,30.05,29,10,29,0.01
2013-2-21,69.8,66.9,64.7,66.3,63.8,61.8,96,90,83,30.15,30.06,26,9,29,0.60
2013-2-22,69.2,67.3,64.7,66.3,64.3,60.1,95,90,77,30.14,30.02,30,10,31,0.03
2013-2-23,73.2,68.1,65.2,65.5,62.8,58.3,93,83,68,30.12,30.01,32,11,32,0.00
2013-2-24,71.0,67.7,66.1,65.0,62.3,60.4,90,83,77,30.12,30.01,28,10,28,0.00
2013-2-25,72.5,68.2,65.9,65.0,62.8,60.5,91,83,73,30.16,30.04,25,10,25,0.00
2013-2-26,72.7,67.8,64.4,64.1,62.2,59.8,93,82,70,30.17,30.06,30,10,30,0.00
2013-2-27,72.7,68.2,65.8,63.6,60.4,56.9,84,76,61,30.18,30.07,32,11,32,0.00
2013-2-28,73.5,68.7,65.9,62.7,59.4,52.6,83,73,50,30.20,30.08,30,12,32,0.00
2013-3-1,71.3,67.4,64.7,63.1,59.3,55.4,90,76,62,30.17,30.08,31,11,31,0.03
2013-3-2,72.9,67.9,65.7,61.8,58.0,52.1,87,71,49,30.18,30.04,29,12,29,0.01
2013-3-3,72.2,68.2,65.6,61.1,57.3,53.2,82,68,56,30.18,30.08,28,11,28,0.00
2013-3-4,72.2,68.0,65.8,61.4,58.4,54.4,80,71,59,30.18,30.08,25,10,26,0.00
2013-3-5,72.5,67.9,65.4,62.5,59.6,55.4,87,75,57,30.14,30.04,26,8,26,0.00
2013-3-6,74.1,68.1,65.1,64.9,62.0,60.4,89,81,70,30.13,30.03,23,9,24,0.00
2013-3-7,72.7,68.4,65.6,66.2,63.1,59.8,88,83,75,30.08,29.96,21,6,21,0.00
2013-3-8,75.5,68.4,61.9,64.9,60.6,57.0,86,77,59,30.01,29.87,15,4,16,0.00
2013-3-9,73.7,70.8,67.2,66.6,62.4,57.6,83,75,61,29.94,29.83,40,10,40,0.15
2013-3-10,76.3,69.9,64.9,66.9,62.8,58.9,92,79,58,29.99,29.85,26,6,28,0.11
2013-3-11,72.2,68.0,64.1,66.3,63.7,60.3,93,86,77,30.04,29.93,18,4,18,0.00
2013-3-12,72.3,68.3,65.8,65.7,63.6,60.5,91,85,79,30.07,29.94,16,5,16,0.00
2013-3-13,70.6,67.8,65.2,61.9,60.6,59.1,83,78,71,30.08,29.98,16,6,22,0.00
2013-3-14,72.8,68.1,64.4,65.9,62.4,58.8,89,82,71,30.06,29.95,13,4,13,0.00
2013-3-15,79.7,71.0,65.6,67.5,59.7,47.1,91,70,37,29.96,29.84,22,4,22,0.00
2013-3-16,71.4,66.6,62.8,63.1,59.0,55.3,92,77,61,29.99,29.87,20,4,20,0.01
2013-3-17,70.8,65.3,60.7,60.5,55.6,51.8,77,71,58,30.03,29.91,21,6,21,0.00
2013-3-18,71.5,66.1,60.8,60.0,58.0,53.9,85,75,65,30.02,29.92,19,6,19,0.00
2013-3-19,74.8,69.1,63.0,64.9,60.9,53.0,83,75,64,30.00,29.91,18,5,22,0.00
2013-3-20,76.5,71.0,65.1,67.5,62.5,57.2,84,74,64,30.04,29.94,18,4,18,0.00
2013-3-21,80.7,73.5,68.2,69.1,65.1,60.0,88,75,53,30.04,29.92,20,4,21,0.00
2013-3-22,77.3,71.3,66.9,68.4,64.5,59.1,87,79,58,30.02,29.89,13,3,13,0.00
2013-3-23,71.5,67.8,65.5,67.1,64.7,60.2,97,90,78,30.02,29.90,21,5,21,0.93
2013-3-24,72.7,69.5,66.7,67.2,65.4,62.6,97,87,76,30.01,29.91,25,7,25,0.05
2013-3-25,73.7,69.7,65.0,68.7,64.6,59.9,90,84,68,30.01,29.92,19,6,19,0.16
2013-3-26,75.4,70.8,67.9,67.6,64.1,59.7,88,80,71,30.03,29.92,20,8,21,0.00
2013-3-27,74.3,69.6,63.3,67.8,62.6,54.7,95,79,56,30.01,29.91,28,7,28,0.22
2013-3-28,72.3,69.0,64.9,67.0,64.4,61.5,92,85,78,30.04,29.94,25,8,25,0.22
2013-3-29,68.6,66.5,64.5,65.4,64.0,63.0,96,92,86,30.05,29.97,22,7,22,1.05
2013-3-30,72.0,66.7,63.3,67.0,63.0,58.2,96,88,73,30.04,29.95,17,4,17,2.64
2013-3-31,71.0,65.8,60.5,61.8,56.2,53.0,92,72,57,30.03,29.93,27,9,29,0.00
2013-4-1,71.3,65.3,59.6,58.3,55.5,50.5,83,71,61,29.99,29.90,21,4,21,0.00
2013-4-2,70.9,65.3,59.3,58.6,55.6,51.8,83,71,61,30.07,29.94,19,7,20,0.00
2013-4-3,72.6,67.0,63.4,61.7,59.6,57.1,85,77,66,30.08,29.98,20,6,20,0.00
2013-4-4,75.2,69.7,65.6,65.3,62.0,59.1,87,77,65,30.08,29.98,19,6,19,0.00
2013-4-5,73.7,70.2,67.5,67.9,65.0,61.9,92,84,74,30.10,30.00,23,8,24,0.00
2013-4-6,79.8,73.4,67.0,69.4,66.3,62.5,92,79,67,30.11,30.02,25,6,25,0.00
2013-4-7,76.1,71.4,66.4,69.0,65.9,62.5,89,83,75,30.16,30.05,26,7,28,0.00
2013-4-8,74.8,70.9,68.5,68.2,65.6,62.0,89,83,76,30.08,29.96,24,9,24,0.00
2013-4-9,77.8,71.8,68.7,68.7,65.0,61.8,88,79,70,30.05,29.95,27,9,27,0.00
2013-4-10,79.7,72.4,68.3,68.7,65.1,61.3,86,78,61,30.04,29.94,27,9,28,0.00
2013-4-11,78.8,72.1,65.7,70.0,65.3,61.7,89,79,69,30.01,29.90,21,6,23,0.00
2013-4-12,78.0,72.7,66.8,66.5,64.4,61.8,86,76,65,29.95,29.88,18,5,18,0.00
2013-4-13,83.0,73.0,67.2,69.6,65.0,57.4,86,77,45,29.94,29.83,21,4,21,0.00
2013-4-14,80.8,73.5,67.5,69.7,64.0,61.5,84,72,58,29.95,29.84,24,4,24,0.00
2013-4-15,81.1,72.6,66.9,69.9,66.1,61.6,88,80,58,30.03,29.90,14,4,14,0.00
2013-4-16,79.2,73.0,67.2,69.5,66.1,61.3,89,79,67,30.09,29.97,19,6,19,0.00
2013-4-17,77.5,72.1,70.0,70.0,66.3,63.7,92,82,71,30.13,30.02,29,12,29,0.00
2013-4-18,75.2,71.1,69.1,68.4,65.3,61.6,88,82,73,30.14,30.04,28,10,28,0.00
2013-4-19,77.7,71.3,68.3,68.8,65.2,61.7,91,81,73,30.09,29.99,28,10,28,0.00
2013-4-20,79.7,72.2,65.8,67.7,64.8,61.0,87,78,65,30.06,29.98,18,5,20,0.00
2013-4-21,80.3,71.7,66.3,68.8,65.4,61.0,88,81,62,30.03,29.94,19,5,20,0.00
2013-4-22,80.8,73.2,67.5,69.4,65.6,62.2,87,78,61,30.02,29.94,22,5,23,0.00
2013-4-23,81.3,73.7,68.2,70.2,66.1,61.7,87,77,56,30.04,29.95,22,5,23,0.00
2013-4-24,77.7,73.1,68.1,70.1,66.7,62.9,92,81,68,30.08,29.98,21,6,21,0.00
2013-4-25,76.3,72.7,70.4,68.2,64.5,58.0,84,76,59,30.06,29.96,29,10,29,0.00
2013-4-26,75.4,71.7,69.4,66.6,63.7,60.1,85,76,65,30.05,29.94,28,10,28,0.00
2013-4-27,79.6,73.2,67.7,66.5,62.1,57.4,80,69,55,30.03,29.92,22,6,22,0.00
2013-4-28,82.5,73.2,67.1,68.3,64.8,60.6,83,75,52,30.01,29.91,19,4,19,0.00
2013-4-29,82.5,73.9,67.7,69.1,65.8,62.8,85,76,56,29.98,29.88,18,4,18,0.00
2013-4-30,80.0,73.8,68.0,69.7,65.3,59.9,87,75,62,30.01,29.92,22,6,22,0.00
2013-5-1,79.2,73.0,69.7,68.2,65.2,60.2,91,77,65,30.06,29.96,26,10,28,0.00
2013-5-2,79.5,73.3,69.2,67.6,65.2,63.1,89,76,59,30.05,29.99,28,8,28,0.00
2013-5-3,79.5,72.9,66.7,65.7,63.6,61.5,84,73,57,30.05,29.96,23,6,23,0.00
2013-5-4,79.2,72.4,66.4,66.9,63.2,59.1,82,73,57,29.99,29.88,21,5,21,0.00
2013-5-5,79.5,72.6,66.8,68.8,64.8,61.6,86,77,64,29.93,29.83,25,5,27,0.20
2013-5-6,72.6,69.4,67.3,68.8,66.7,63.8,96,91,75,29.96,29.84,11,2,12,0.30
2013-5-7,77.0,71.1,66.3,68.6,65.6,63.0,92,83,73,29.98,29.89,15,4,18,0.00
2013-5-8,77.7,72.0,66.9,69.5,67.0,63.8,91,85,73,30.01,29.91,13,4,13,0.00
2013-5-9,79.6,73.2,67.1,70.4,67.9,64.0,91,84,71,30.07,29.95,18,5,18,0.00
2013-5-10,75.7,71.7,69.5,70.7,68.9,66.7,97,91,82,30.11,30.01,17,5,20,1.01
2013-5-11,71.5,68.6,66.2,69.2,67.2,64.7,97,95,91,30.11,30.02,19,6,19,1.16
2013-5-12,69.7,68.5,67.4,69.1,67.7,66.7,98,97,94,30.11,30.03,23,8,23,0.44
2013-5-13,72.1,70.5,68.3,70.5,69.2,67.4,98,96,89,30.08,29.99,26,10,26,0.01
2013-5-14,77.0,73.1,69.9,70.7,68.5,65.0,95,86,77,30.12,30.02,29,12,29,0.00
2013-5-15,75.8,72.6,70.7,69.9,68.2,64.7,93,86,76,30.14,30.02,30,10,30,0.00
2013-5-16,77.0,72.5,70.2,69.8,67.1,62.5,89,83,71,30.12,30.01,31,10,31,0.00
2013-5-17,75.1,72.3,69.2,68.5,66.2,63.6,89,81,72,30.08,29.97,31,9,31,0.00
2013-5-18,78.7,72.5,70.0,69.5,65.8,63.2,87,80,67,30.02,29.95,22,7,22,0.08
2013-5-19,76.5,70.5,66.2,69.1,65.7,62.6,92,85,74,29.98,29.89,16,5,16,0.14
2013-5-20,75.3,69.7,64.8,68.2,65.1,62.0,93,85,74,29.99,29.89,16,4,17,0.00
2013-5-21,78.2,71.2,66.0,69.2,65.6,62.0,90,83,67,30.00,29.91,16,4,17,0.00
2013-5-22,79.8,74.0,68.0,71.0,66.8,60.7,89,78,67,30.03,29.92,15,5,17,0.00
2013-5-23,78.2,73.7,68.4,71.7,68.2,64.4,91,83,70,30.06,29.97,21,7,21,0.00
2013-5-24,77.2,73.1,71.0,70.2,67.7,65.6,90,83,69,30.08,30.00,26,9,26,0.00
2013-5-25,76.3,72.4,69.9,70.0,67.9,66.1,94,86,79,30.10,30.00,26,10,26,0.00
2013-5-26,76.1,73.0,70.1,69.5,67.1,64.4,88,82,73,30.11,29.99,32,10,34,0.00
2013-5-27,75.7,72.1,70.5,68.5,66.3,63.0,87,82,71,30.09,30.02,25,9,29,0.00
2013-5-28,78.9,72.8,69.9,71.1,67.2,63.4,91,83,72,30.08,30.01,22,7,22,0.10
2013-5-29,80.5,73.9,68.6,71.6,67.9,65.3,91,82,71,30.06,29.99,24,8,24,0.00
2013-5-30,79.2,73.7,70.6,71.0,68.2,64.6,94,83,73,30.03,29.94,26,9,26,0.00
2013-5-31,77.3,73.6,70.2,71.4,68.7,66.4,93,85,76,30.04,29.93,32,10,32,0.00
2013-6-1,77.8,74.0,71.4,72.2,69.1,64.2,93,85,75,30.09,29.98,32,13,32,0.00
2013-6-2,75.7,73.0,71.0,71.8,68.9,65.7,94,87,78,30.10,30.02,29,11,29,0.00
2013-6-3,78.0,73.4,71.3,69.7,67.1,61.9,88,81,67,30.10,30.00,37,12,37,0.00
2013-6-4,78.8,73.1,70.9,69.4,67.0,61.3,89,81,60,30.06,29.97,29,12,32,0.00
2013-6-5,76.3,72.5,68.7,69.7,66.9,64.5,92,83,74,30.06,29.97,28,10,28,0.00
2013-6-6,75.8,71.9,67.4,69.4,66.6,64.7,94,84,75,30.06,29.94,28,10,28,0.06
2013-6-7,75.8,71.0,66.7,67.2,65.4,62.7,94,83,70,30.06,29.95,27,9,27,0.09
2013-6-8,75.8,72.2,68.1,69.6,66.7,63.8,90,83,76,30.07,29.98,27,9,28,0.03
2013-6-9,75.8,72.3,70.8,69.4,67.4,64.8,91,85,77,30.09,30.00,24,9,24,0.00
2013-6-10,76.5,72.5,70.2,69.7,67.5,64.7,91,84,76,30.07,30.00,28,9,28,0.00
2013-6-11,79.3,73.8,70.7,69.4,67.4,65.0,89,81,66,30.03,29.94,29,9,29,0.00
2013-6-12,77.3,73.2,70.9,71.1,67.0,60.7,91,81,65,30.09,29.98,32,12,32,0.00
2013-6-13,77.2,72.7,69.9,70.3,68.1,65.2,93,86,77,30.11,30.03,29,12,29,0.00
2013-6-14,75.2,72.4,69.7,68.7,67.4,65.8,92,85,76,30.09,29.99,27,11,27,0.00
2013-6-15,75.8,72.5,70.1,69.3,66.7,61.9,90,82,71,30.03,29.93,26,11,26,0.00
2013-6-16,70.9,70.7,70.3,66.7,66.0,65.2,87,85,83,29.98,29.92,22,10,23,0.00
2013-6-17,77.4,72.8,70.2,70.0,67.4,64.3,90,83,73,30.10,29.98,26,11,26,0.00
2013-6-18,79.5,73.7,70.5,70.6,68.3,65.3,90,83,72,30.08,29.98,32,11,32,0.00
2013-6-19,77.5,73.6,71.2,68.3,66.0,61.2,89,77,61,30.07,29.99,25,9,25,0.00
2013-6-20,76.8,72.3,68.3,69.5,67.3,64.3,94,84,71,30.07,29.97,28,8,28,0.07
2013-6-21,75.4,72.1,70.2,69.4,67.2,64.3,93,85,77,30.07,29.98,25,9,25,0.00
2013-6-22,78.0,72.6,69.6,69.8,67.1,64.8,89,83,68,30.11,30.01,29,11,30,0.00
2013-6-23,77.5,72.6,69.3,70.0,68.1,66.1,93,86,75,30.12,30.04,27,10,27,0.00
2013-6-24,78.5,73.0,68.8,68.5,65.9,61.2,93,79,63,30.11,30.04,24,10,24,0.00
2013-6-25,72.8,70.5,68.6,70.6,68.3,66.1,96,93,87,30.08,30.01,19,7,19,0.12
2013-6-26,76.2,72.2,69.4,70.0,67.7,64.8,93,86,78,30.07,30.00,23,8,23,0.01
2013-6-27,78.2,73.1,69.8,67.5,65.6,61.7,88,78,64,30.03,29.96,23,9,23,0.00
2013-6-28,77.5,72.3,68.8,68.9,66.7,63.0,91,83,67,30.01,29.94,25,8,28,0.00
2013-6-29,80.2,72.9,69.9,69.8,66.7,62.3,89,81,65,30.03,29.93,30,9,30,0.00
2013-6-30,77.5,73.8,71.2,69.6,67.3,64.7,88,80,70,30.04,29.97,22,9,22,0.00
2013-7-1,77.8,73.1,69.0,70.4,67.4,63.8,92,83,70,30.02,29.96,25,8,25,0.02
2013-7-2,77.8,72.8,68.5,70.4,67.1,64.0,92,83,66,30.00,29.92,23,8,23,0.05
2013-7-3,78.8,73.3,69.8,69.4,66.8,64.0,87,80,69,30.00,29.92,20,7,20,0.00
2013-7-4,78.0,72.8,70.1,68.9,67.2,64.1,90,83,72,30.04,29.95,22,5,22,0.00
2013-7-5,77.8,72.9,67.7,70.3,67.2,62.0,89,82,74,30.03,29.96,18,6,18,0.00
2013-7-6,78.9,73.8,69.8,69.3,67.0,64.4,87,79,65,30.02,29.95,18,6,19,0.00
2013-7-7,79.7,73.4,68.9,69.0,64.8,58.6,88,75,59,29.99,29.93,20,6,22,0.00
2013-7-8,83.1,77.8,73.5,72.4,69.5,67.2,87,76,65,30.03,29.91,26,10,26,0.00
2013-7-9,80.2,75.4,72.6,71.2,69.3,67.0,90,82,69,30.15,29.97,31,13,35,0.00
2013-7-10,79.8,74.2,70.4,69.9,67.9,63.5,90,81,60,30.16,30.07,31,11,33,0.00
2013-7-11,80.2,73.5,68.0,69.2,67.4,65.6,93,81,64,30.12,30.01,30,11,30,0.00
2013-7-12,77.5,73.3,70.8,69.7,67.1,60.8,88,81,67,30.06,29.97,32,10,32,0.00
2013-7-13,78.3,73.8,70.5,68.2,66.6,64.1,87,79,68,30.02,29.93,26,10,26,0.00
2013-7-14,81.3,74.3,71.1,69.6,65.4,59.5,81,74,60,29.99,29.90,27,10,27,0.00
2013-7-15,80.4,73.9,69.0,69.6,66.4,63.4,91,78,62,30.00,29.92,20,9,26,0.00
2013-7-16,80.3,74.5,71.0,69.6,66.8,63.3,86,77,65,30.00,29.90,30,9,30,0.00
2013-7-17,77.7,73.9,71.4,69.2,65.8,59.0,86,76,61,30.01,29.93,32,10,32,0.00
2013-7-18,77.0,73.8,71.7,70.1,67.6,64.7,87,81,73,30.04,29.96,25,9,25,0.00
2013-7-19,82.6,75.5,71.7,71.2,68.1,64.9,87,78,66,30.08,29.98,28,9,28,0.00
2013-7-20,78.0,73.8,71.4,69.4,67.4,64.6,89,80,72,30.07,29.99,27,10,27,0.00
2013-7-21,78.9,74.2,71.3,69.8,67.1,63.1,93,79,61,30.04,29.95,23,9,23,0.02
2013-7-22,80.8,75.3,71.5,74.8,71.4,68.6,95,88,79,30.00,29.90,18,6,21,0.17
2013-7-23,82.0,76.1,72.6,73.6,70.8,69.1,92,84,72,30.01,29.93,24,6,24,0.00
2013-7-24,78.5,74.3,70.6,70.8,68.0,65.2,94,81,71,30.00,29.90,26,10,27,0.00
2013-7-25,78.5,74.3,70.7,68.8,66.8,63.1,90,78,60,30.00,29.91,26,9,26,0.00
2013-7-26,79.3,74.1,70.9,70.9,67.9,64.9,90,81,72,30.05,29.93,25,10,25,0.00
2013-7-27,79.0,74.5,71.0,69.6,66.5,60.1,89,77,58,30.04,29.95,26,10,28,0.00
2013-7-28,79.0,74.3,70.8,71.8,68.6,64.7,96,83,68,30.01,29.93,22,8,22,0.05
2013-7-29,76.6,74.0,71.8,74.7,72.9,67.1,98,96,73,29.95,29.75,44,9,46,1.95
2013-7-30,83.8,77.9,74.4,75.3,72.3,70.1,91,83,73,30.10,30.00,38,11,38,0.00
2013-7-31,75.1,73.9,73.1,71.5,69.4,66.6,92,86,79,30.10,30.06,29,11,29,0.00
2013-8-1,78.8,74.9,71.4,70.0,66.9,60.4,89,77,62,30.09,29.98,31,11,35,0.00
2013-8-2,77.8,74.0,71.6,70.4,68.5,66.7,88,83,72,30.05,29.96,26,10,28,0.00
2013-8-3,78.2,74.0,71.5,70.1,68.2,66.0,90,82,71,30.04,29.96,24,10,24,0.00
2013-8-4,78.5,74.1,70.6,70.8,68.4,65.5,90,83,74,30.03,29.95,25,10,25,0.00
2013-8-5,76.1,73.3,70.2,71.9,69.5,67.2,97,88,81,30.02,29.94,25,9,25,0.07
2013-8-6,77.3,74.2,72.2,70.7,68.5,64.9,89,82,72,30.04,29.97,27,9,27,0.00
2013-8-7,79.5,74.3,71.6,69.4,67.7,64.9,87,80,64,30.06,29.98,24,9,24,0.00
2013-8-8,78.0,74.0,71.8,70.2,67.8,64.3,88,81,71,30.08,29.99,23,9,23,0.00
2013-8-9,79.0,73.5,70.9,71.9,69.3,65.3,98,87,67,30.06,29.96,23,8,25,0.23
2013-8-11,79.4,74.9,72.7,73.7,71.1,69.4,95,88,76,30.05,29.97,29,12,29,0.00
2013-8-12,77.7,74.1,72.4,70.9,69.2,67.6,91,85,77,30.07,30.00,24,10,24,0.00
2013-8-13,79.1,74.0,71.6,70.8,68.9,66.1,90,84,67,30.05,29.95,26,9,26,0.00
2013-8-14,78.3,74.2,72.2,70.3,68.4,66.6,87,82,71,30.03,29.94,26,11,28,0.00
2013-8-15,79.3,74.3,72.0,70.8,68.2,63.9,90,82,63,30.04,29.96,28,10,28,0.00
2013-8-16,76.7,74.0,71.1,72.2,69.5,66.2,91,86,81,30.05,29.96,26,10,26,0.00
2013-8-17,77.8,74.3,71.7,69.5,67.6,65.1,88,80,68,30.04,29.93,32,10,32,0.00
2013-8-18,79.0,74.6,71.9,70.4,67.9,65.9,85,80,70,30.03,29.94,27,10,27,0.00
2013-8-19,76.5,73.6,70.6,70.1,66.2,58.8,89,78,61,30.02,29.94,20,7,21,0.00
2013-8-20,81.8,75.3,70.7,70.7,68.5,65.3,91,80,66,29.99,29.91,22,6,22,0.00
2013-8-21,80.5,75.5,70.7,72.1,68.9,65.3,91,80,70,29.97,29.89,19,7,21,0.00
2013-8-22,82.8,76.5,72.9,71.7,69.1,66.8,87,78,66,29.99,29.89,21,9,23,0.00
2013-8-23,79.5,75.1,70.9,70.7,68.8,65.7,95,81,67,30.00,29.91,24,9,25,0.00
2013-8-24,80.3,75.3,72.5,72.0,68.7,65.2,87,80,67,30.04,29.94,30,10,30,0.00
2013-8-25,80.5,75.3,72.7,71.3,69.4,67.8,90,82,67,30.08,29.99,26,10,26,0.00
2013-8-26,81.8,75.5,72.9,71.5,69.1,66.4,89,81,62,30.09,30.00,29,10,29,0.00
2013-8-27,79.5,74.7,71.7,70.2,67.8,64.8,92,79,64,30.09,29.99,24,9,24,0.05
2013-8-28,79.0,74.5,70.0,71.2,68.5,59.9,94,82,53,30.02,29.90,22,7,25,0.07
2013-8-29,80.0,75.7,71.5,70.6,68.8,66.2,91,79,68,29.95,29.87,21,7,21,0.01
2013-9-5,75.5,73.8,73.2,68.2,66.6,65.0,80,78,75,30.08,30.00,16,5,18,0.00
2013-9-6,80.3,74.8,70.1,70.2,67.4,63.3,94,78,59,30.08,30.00,20,7,21,0.28
2013-9-7,80.8,75.4,70.9,73.8,70.9,68.2,95,86,77,30.05,29.94,28,9,34,0.09
2013-9-8,84.2,76.6,73.5,72.1,69.6,66.3,90,79,63,30.06,29.96,30,10,31,0.00
2013-9-9,80.0,75.4,72.6,70.5,68.2,65.9,87,79,66,30.09,29.97,27,10,27,0.00
2013-9-10,80.2,75.0,72.8,71.1,69.4,66.7,89,83,71,30.07,29.98,22,8,25,0.00
2013-9-11,78.8,75.2,72.8,72.0,69.6,66.5,92,83,72,30.08,29.98,21,7,24,0.01
2013-9-12,81.5,76.4,72.4,72.8,70.3,61.6,92,82,69,30.01,29.91,21,7,21,0.06
2013-9-13,81.0,76.1,72.9,72.4,69.7,65.1,91,81,69,29.94,29.85,24,9,24,0.00
2013-9-14,80.2,76.0,73.2,72.8,69.6,64.4,92,81,72,29.93,29.85,20,7,20,0.03
2013-9-15,81.0,76.2,72.8,72.4,69.2,64.8,92,79,69,29.99,29.88,27,10,27,0.02
2013-9-16,80.5,75.8,72.0,71.9,69.7,66.7,91,82,68,30.06,29.95,32,10,32,0.02
2013-9-17,78.0,74.2,69.9,72.4,69.9,67.3,95,87,79,30.05,29.94,27,9,27,0.26
2013-9-18,80.1,75.5,72.6,71.8,69.1,65.3,89,81,69,30.00,29.91,28,11,29,0.00
2013-9-19,79.8,75.6,73.1,71.0,68.8,64.1,86,80,69,30.04,29.94,25,9,25,0.00
2013-9-20,79.5,75.1,69.9,71.7,68.9,66.1,94,81,68,30.05,29.97,27,10,27,0.00
2013-9-21,81.6,74.7,70.2,70.4,67.5,64.9,89,79,62,30.04,29.95,27,9,30,0.00
2013-9-22,78.8,74.4,71.6,69.9,68.1,63.9,90,81,71,30.02,29.95,23,9,26,0.00
2013-9-23,81.8,75.3,72.2,71.0,68.4,63.8,87,79,65,30.01,29.93,25,8,28,0.00
2013-9-24,79.4,74.8,70.9,71.7,68.7,65.4,92,81,72,30.02,29.92,25,9,29,0.00
2013-9-25,80.0,75.0,69.9,71.1,68.5,64.9,90,80,71,30.04,29.95,24,10,26,0.03
2013-9-26,80.9,75.1,72.3,70.4,67.6,64.4,88,78,64,29.99,29.91,29,10,30,0.00
2013-9-27,81.7,75.7,72.9,70.5,68.1,64.9,86,78,62,30.08,29.95,29,10,30,0.00
2013-9-28,80.4,75.0,71.8,71.1,69.2,66.4,91,82,69,30.09,30.00,22,9,23,0.03
2013-9-29,78.6,74.5,71.2,70.3,68.4,65.5,87,82,72,30.06,29.93,30,10,33,0.00
2013-9-30,81.0,75.4,72.7,71.4,67.8,64.0,87,77,68,30.03,29.93,27,9,27,0.00
2013-10-1,80.5,75.9,73.2,71.5,68.8,64.7,87,79,71,30.00,29.90,27,10,27,0.00
2013-10-2,82.3,75.9,73.0,70.8,68.2,65.5,84,77,66,29.97,29.88,27,9,27,0.00
2013-10-3,82.1,76.5,73.4,70.4,67.6,65.2,82,74,65,29.97,29.88,26,9,26,0.00
2013-10-6,74.0,73.4,73.1,69.7,68.8,67.3,88,86,81,29.99,29.96,22,9,22,0.13
2013-10-7,78.5,75.2,72.9,70.6,68.2,64.5,90,79,70,30.05,29.94,26,10,29,0.00
2013-10-8,77.3,74.1,72.1,71.1,67.7,63.4,87,81,69,30.07,29.99,32,10,32,0.00
2013-10-9,78.3,74.6,72.7,70.5,68.0,64.4,87,80,71,30.05,29.95,23,9,23,0.00
2013-10-10,78.8,74.9,72.1,70.6,68.2,65.9,89,80,71,30.00,29.91,25,8,26,0.00
2013-10-11,82.7,76.2,70.1,72.6,69.2,65.3,89,79,70,30.02,29.90,18,4,18,0.00
2013-10-12,80.4,75.5,70.7,73.9,70.2,66.7,90,84,71,30.01,29.92,18,5,18,0.00
2013-10-13,81.5,75.6,70.6,72.3,68.5,65.0,88,79,68,29.98,29.90,18,5,20,0.00
2013-10-14,79.5,75.2,70.0,71.1,67.9,63.5,87,78,68,29.97,29.88,18,6,18,0.00
2013-10-15,79.3,74.9,71.6,71.8,67.9,64.4,86,79,72,29.98,29.88,22,8,22,0.00
2013-10-16,79.0,74.6,71.6,70.0,68.1,65.4,86,80,70,29.99,29.89,21,8,21,0.00
2013-10-17,80.6,74.9,69.3,72.7,68.3,64.4,89,80,71,29.98,29.90,15,4,16,0.00
2013-10-18,81.2,75.1,70.3,72.2,68.3,63.3,90,80,68,29.96,29.84,13,3,13,0.00
2013-10-19,81.2,74.2,68.8,70.4,68.0,64.8,91,82,66,29.90,29.81,18,4,18,0.00
2013-10-20,79.5,73.4,69.4,71.6,68.3,64.2,91,84,73,29.95,29.84,15,4,15,0.00
2013-10-21,79.5,72.8,68.2,68.7,65.8,62.1,90,79,60,29.98,29.88,19,5,19,0.00
2013-10-22,79.5,74.1,69.1,69.9,67.2,62.9,88,79,61,29.98,29.91,21,5,21,0.00
2013-10-23,80.3,75.1,72.1,69.5,68.2,64.5,87,79,61,30.01,29.91,19,6,20,0.00
2013-10-24,79.2,74.6,71.8,70.0,67.9,64.4,88,80,69,29.98,29.89,22,7,22,0.00
2013-10-25,79.7,75.2,72.8,71.8,68.3,62.1,88,79,59,30.00,29.90,23,7,23,0.00
2013-10-26,74.3,72.7,71.2,69.2,67.5,66.6,86,84,80,29.98,29.95,10,3,10,0.00
2013-10-27,75.9,75.0,74.5,70.7,69.4,68.4,88,83,78,30.03,30.01,15,7,19,0.00
2013-10-28,80.1,76.0,73.7,72.1,68.8,65.0,87,78,68,30.05,29.93,20,8,21,0.00
2013-10-29,77.8,74.4,72.6,70.2,68.4,65.8,85,82,75,30.07,29.96,22,8,23,0.00
2013-10-30,78.5,74.1,71.2,71.3,68.9,66.1,89,84,72,30.08,29.98,23,7,23,0.00
2013-10-31,80.8,75.0,70.6,71.8,68.4,63.3,94,80,66,30.10,30.00,23,8,23,0.16
2013-11-1,77.0,73.2,70.6,70.8,68.8,66.2,93,86,78,30.09,29.97,23,7,23,0.03
2013-11-2,79.0,73.7,70.7,69.8,68.2,65.5,92,83,70,30.09,29.98,25,9,25,0.01
2013-11-3,78.7,74.1,71.6,69.1,67.3,65.1,86,80,69,30.09,29.97,25,10,25,0.00
2013-11-4,78.3,73.8,71.4,70.1,68.1,66.6,87,82,71,30.04,29.93,22,7,22,0.00
2013-11-5,77.0,73.4,69.6,71.5,67.6,64.8,95,82,70,30.00,29.91,24,6,24,0.08
2013-11-6,78.6,73.7,68.9,69.9,67.4,64.5,92,81,66,29.98,29.87,18,6,18,0.04
2013-11-7,79.0,75.0,71.4,71.8,68.1,63.9,88,79,67,29.98,29.86,21,7,21,0.00
2013-11-8,74.4,74.2,73.9,69.0,68.5,67.7,84,82,80,29.96,29.95,15,6,17,0.00
2013-11-10,71.5,68.5,66.0,68.7,66.2,63.9,98,92,81,29.98,29.85,25,9,25,3.74
2013-11-11,74.3,70.7,67.6,64.6,61.9,59.4,81,74,67,29.99,29.89,20,7,20,0.00
2013-11-12,74.8,70.0,64.7,63.6,61.0,58.6,84,73,64,30.00,29.90,20,6,20,0.00
2013-11-13,75.3,71.0,67.6,68.0,64.8,62.0,93,81,72,30.01,29.90,17,5,17,0.09
2013-11-14,75.3,71.4,67.2,70.8,67.9,65.0,96,89,77,30.00,29.90,16,4,16,0.55
2013-11-15,80.2,76.0,71.0,73.1,69.1,60.7,93,80,53,30.04,29.95,23,6,23,0.00
2013-11-16,79.7,74.5,70.5,71.6,68.4,65.7,87,81,70,30.03,29.94,25,9,25,0.00
2013-11-17,80.1,74.3,69.0,70.2,67.5,63.4,86,79,70,29.99,29.88,13,4,13,0.00
2013-11-18,80.5,73.7,68.6,71.0,66.5,60.0,87,78,64,29.97,29.86,13,4,13,0.00
2013-11-19,79.5,73.3,66.9,71.5,66.6,60.4,89,80,70,29.97,29.85,14,4,14,0.00
2013-11-20,78.2,73.2,68.5,71.1,67.2,63.2,87,82,76,29.99,29.88,12,3,12,0.00
2013-11-21,78.4,73.5,69.4,71.7,68.0,63.1,90,83,73,30.02,29.92,15,5,15,0.00
2013-11-22,77.8,72.5,67.7,71.5,66.8,62.7,90,82,73,30.03,29.93,17,6,17,0.10
2013-11-23,73.8,71.1,68.7,66.9,63.8,58.0,90,78,67,30.02,29.90,19,7,19,0.19
2013-11-24,75.3,71.0,66.0,65.1,61.5,56.7,82,72,60,30.00,29.89,19,6,21,0.00
2013-11-25,74.6,70.8,68.8,66.5,64.3,62.0,87,80,70,30.08,29.94,19,7,23,0.00
2013-11-26,76.6,72.8,71.1,70.2,67.3,64.4,87,83,78,30.09,29.95,25,9,25,0.00
2013-11-27,77.7,73.0,70.1,68.9,65.6,59.8,90,78,60,30.09,29.94,20,7,21,0.00
2013-11-28,78.3,73.4,69.2,69.8,66.4,63.2,88,79,69,30.00,29.89,17,5,19,0.00
2013-11-29,79.1,73.7,67.9,69.3,66.0,61.6,86,77,63,29.96,29.84,18,4,18,0.00
2013-11-30,80.3,73.4,0.0,71.1,65.3,-99.9,90,77,59,29.97,29.88,19,-3,20,0.00
2013-12-1,82.4,74.6,69.6,71.8,67.2,63.1,88,78,63,29.98,29.86,19,4,21,0.06
2013-12-2,77.8,73.1,69.2,70.4,67.1,62.0,91,82,73,30.00,29.89,15,3,15,0.00
2013-12-3,78.7,73.2,67.8,68.1,64.9,60.8,86,75,62,29.97,29.85,16,5,19,0.00
2013-12-4,77.5,72.8,68.1,66.8,63.1,58.1,82,72,56,29.99,29.85,27,7,27,0.00
2013-12-5,77.5,72.5,66.2,68.8,64.4,58.4,86,76,63,30.00,29.90,22,5,22,0.00
2013-12-6,77.3,72.1,67.5,68.7,64.7,59.5,84,78,67,30.00,29.90,17,4,17,0.00
2013-12-7,77.3,73.2,70.4,69.9,65.6,60.0,86,77,65,29.98,29.87,20,5,20,0.00
2013-12-8,83.7,75.7,70.5,71.4,67.5,62.2,89,76,54,30.03,29.90,19,5,20,0.00
2013-12-9,80.8,75.3,70.7,72.9,70.1,66.7,91,84,71,30.06,29.95,26,7,28,0.00
2013-12-10,77.5,72.9,69.4,70.2,67.8,63.3,96,84,62,30.06,29.95,26,10,26,0.00
2013-12-11,79.2,72.9,70.3,68.9,66.0,60.9,93,79,65,30.03,29.92,29,11,29,0.00
2013-12-12,78.1,72.3,66.2,69.0,64.3,59.8,88,76,64,30.06,29.92,23,5,23,0.00
2013-12-13,76.8,73.2,69.8,68.9,66.6,63.0,88,80,71,30.05,29.93,16,6,24,0.00
2013-12-14,78.2,72.5,68.1,66.4,64.1,61.6,83,75,66,29.99,29.87,20,5,22,0.00
2013-12-15,76.1,70.5,65.9,66.8,63.3,60.5,87,78,67,29.97,29.83,11,3,11,0.00
2013-12-16,76.4,70.8,65.4,68.8,64.9,59.7,89,82,71,29.99,29.88,16,4,16,0.00
2013-12-17,74.8,70.7,66.6,67.8,64.7,60.4,87,81,72,30.03,29.94,17,6,19,0.01
2013-12-18,75.2,70.8,68.4,68.2,64.9,61.8,90,82,70,30.04,29.94,28,6,28,0.05
2013-12-19,77.3,71.7,68.1,67.9,65.0,61.4,88,79,64,30.04,29.96,27,9,36,0.00
2013-12-20,77.0,73.0,70.5,69.9,65.4,60.0,87,77,68,30.04,29.93,30,7,31,0.00
2013-12-21,75.5,72.2,70.3,69.1,66.6,63.1,88,83,71,30.00,29.92,18,6,22,0.00
2013-12-22,76.7,71.5,67.2,68.7,66.1,62.8,93,83,72,30.00,29.91,18,5,20,0.00
2013-12-23,75.5,72.0,69.2,69.2,66.4,61.5,92,83,67,30.06,29.93,23,8,25,0.00
2013-12-24,75.7,71.8,69.5,68.6,66.8,65.0,90,84,76,30.08,29.97,25,8,25,0.00
2013-12-25,75.3,71.6,69.7,68.8,66.5,64.9,88,84,77,30.06,29.95,22,8,22,0.00
2013-12-26,75.1,70.7,67.9,68.8,66.3,64.1,93,86,77,30.02,29.94,20,8,21,0.03
2013-12-27,73.9,69.9,66.4,68.8,66.2,63.3,96,88,80,30.00,29.88,21,7,23,0.43
2013-12-28,74.5,70.4,67.3,70.7,67.9,65.9,97,92,84,29.97,29.84,23,6,23,0.71
2013-12-29,72.0,69.7,67.4,68.0,66.0,63.8,96,88,81,30.00,29.90,29,8,32,0.91
2013-12-30,71.4,68.6,65.8,66.6,64.8,62.7,96,88,77,30.01,29.92,17,6,19,0.10
2013-12-31,74.2,70.6,67.1,67.6,65.8,63.8,94,85,76,30.01,29.91,15,5,16,0.00
2014-1-1,77.5,71.0,67.3,70.6,66.4,63.0,92,86,75,29.97,29.84,15,4,15,0.00
2014-1-2,78.6,72.2,66.5,69.2,65.3,62.0,88,79,66,29.90,29.74,28,7,28,0.21